Time Latitude Longitude Accuracy (66% radius in meters) Altitude (meters) Speed (km/hour) Bearing (degrees) Battery (%) GPS flag
07:29:25 57.205165 60.116915 0 0 0 0 1 delete
07:29:24 57.205167 60.116872 0 0 0 0 1 delete
07:29:23 57.205167 60.116827 0 0 0 0 1 delete
07:29:22 57.205165 60.116780 0 0 0 0 1 delete
07:29:21 57.205157 60.116738 0 0 0 0 1 delete
07:29:20 57.205152 60.116697 0 0 0 0 1 delete
07:29:19 57.205150 60.116652 0 0 0 0 1 delete
07:29:18 57.205148 60.116597 0 0 0 0 1 delete
07:29:17 57.205147 60.116543 0 0 0 0 1 delete
07:29:16 57.205145 60.116488 0 0 0 0 1 delete
07:29:15 57.205140 60.116440 0 0 0 0 1 delete
07:29:14 57.205133 60.116387 0 0 0 0 1 delete
07:29:13 57.205122 60.116337 0 0 0 0 1 delete
07:29:12 57.205117 60.116290 0 0 0 0 1 delete
07:29:11 57.205103 60.116248 0 0 0 0 1 delete
07:29:10 57.205093 60.116208 0 0 0 0 1 delete
07:29:09 57.205073 60.116173 0 0 0 0 1 delete
07:29:08 57.205047 60.116125 0 0 0 0 1 delete
07:29:07 57.205015 60.116083 0 0 0 0 1 delete
07:29:06 57.204987 60.116050 0 0 0 0 1 delete
07:29:05 57.204950 60.116025 0 0 0 0 1 delete
07:29:04 57.204915 60.116005 0 0 0 0 1 delete
07:29:03 57.204885 60.115990 0 0 0 0 1 delete
07:29:02 57.204858 60.115985 0 0 0 0 1 delete
07:29:01 57.204837 60.115975 0 0 0 0 1 delete
07:29:00 57.204818 60.115957 0 0 0 0 1 delete
07:28:59 57.204805 60.115933 0 0 0 0 1 delete
07:28:58 57.204793 60.115895 0 0 0 0 1 delete
07:28:57 57.204782 60.115852 0 0 0 0 1 delete
07:28:56 57.204775 60.115808 0 0 0 0 1 delete
07:28:55 57.204760 60.115773 0 0 0 0 1 delete
07:28:54 57.204740 60.115743 0 0 0 0 1 delete
07:28:53 57.204722 60.115712 0 0 0 0 1 delete
07:28:52 57.204717 60.115657 0 0 0 0 1 delete
07:28:51 57.204718 60.115608 0 0 0 0 1 delete
07:28:50 57.204717 60.115565 0 0 0 0 1 delete
07:28:49 57.204720 60.115512 0 0 0 0 1 delete
07:28:48 57.204725 60.115462 0 0 0 0 1 delete
07:28:47 57.204735 60.115407 0 0 0 0 1 delete
07:28:46 57.204745 60.115348 0 0 0 0 1 delete
07:28:45 57.204753 60.115283 0 0 0 0 1 delete
07:28:44 57.204752 60.115213 0 0 0 0 1 delete
07:28:43 57.204755 60.115140 0 0 0 0 1 delete
07:28:42 57.204753 60.115068 0 0 0 0 1 delete
07:28:41 57.204755 60.115002 0 0 0 0 1 delete
07:28:40 57.204748 60.114930 0 0 0 0 1 delete
07:28:39 57.204743 60.114858 0 0 0 0 1 delete
07:28:38 57.204742 60.114795 0 0 0 0 1 delete
07:28:37 57.204742 60.114727 0 0 0 0 1 delete
07:28:36 57.204740 60.114663 0 0 0 0 1 delete